This is the latest recevied weather packets stored in our database for station/object SP3OTE-2. If no packets are shown the sender has not sent any weather packets the latest 10 day(s).
| Time | Temp. | Humidity | Pressure | Rain* | Wind** | Luminosity | Snow |
|---|---|---|---|---|---|---|---|
| 1778013523 | 17.78° C | 71% | 1006.3 hPa | - | - | - | - |
| 1778012923 | 18.33° C | 71% | 1006.3 hPa | - | - | - | - |
| 1778012322 | 18.89° C | 69% | 1006.2 hPa | - | - | - | - |
| 1778011722 | 18.89° C | 70% | 1006.1 hPa | - | - | - | - |
| 1778011122 | 19.44° C | 70% | 1006.1 hPa | - | - | - | - |
| 1778010522 | 19.44° C | 67% | 1006.1 hPa | - | - | - | - |
| 1778009921 | 20° C | 70% | 1006.2 hPa | - | - | - | - |
| 1778009321 | 20.56° C | 66% | 1006 hPa | - | - | - | - |
| 1778008721 | 21.11° C | 64% | 1005.8 hPa | - | - | - | - |
| 1778008121 | 21.67° C | 63% | 1005.9 hPa | - | - | - | - |
| 1778007520 | 21.67° C | 63% | 1005.9 hPa | - | - | - | - |
| 1778006920 | 22.22° C | 60% | 1005.9 hPa | - | - | - | - |
| 1778006320 | 22.78° C | 57% | 1005.7 hPa | - | - | - | - |
| 1778005719 | 22.78° C | 56% | 1005.7 hPa | - | - | - | - |
| 1778005119 | 23.33° C | 51% | 1005.5 hPa | - | - | - | - |
| 1778004519 | 23.89° C | 50% | 1005.3 hPa | - | - | - | - |
| 1778003919 | 24.44° C | 45% | 1005.2 hPa | - | - | - | - |
| 1778003318 | 25° C | 42% | 1005.2 hPa | - | - | - | - |
| 1778002718 | 25.56° C | 39% | 1005.1 hPa | - | - | - | - |
| 1778002118 | 26.67° C | 36% | 1005 hPa | - | - | - | - |
| 1778001518 | 27.78° C | 33% | 1004.9 hPa | - | - | - | - |
| 1778000916 | 29.44° C | 28% | 1004.7 hPa | - | - | - | - |
| 1778000316 | 31.67° C | 26% | 1004.7 hPa | - | - | - | - |
| 1777999716 | 32.78° C | 25% | 1004.8 hPa | - | - | - | - |
| 1777999115 | 33.33° C | 24% | 1004.9 hPa | - | - | - | - |
* Rain since midnight (hover to see other rain measurements)
** Current wind speed in m/s (hover to see current wind gust speed)